Denver, IN (46926)

4:07 AM EST on December 27, 2014 (GMT -0500)
South of RoAnn, In. | Change Station
CLOSE
Current Station
Personal Weather Station
Location: Wabash, IN
Elevation: 769 ft
Nearby Weather Stations

Elev 769 ft 40.89 °N, 85.92 °W | Updated 1 minute ago

Overcast
Overcast
45.0 °F
Feels Like 41 °F
N
7.0
Wind Variable Wind from South
Gusts 8.0 mph

Today
High -- | Low -- °F
--% Chance of Precip.
Yesterday
High -- | Low -- °F
Precip. -- in
8:07 AM 5:23 PM
Waxing Crescent, 34% visible
Pressure 30.08 in
Visibility 7.0 miles
Clouds Scattered Clouds 1700 ft
Mostly Cloudy 2100 ft
Overcast 3800 ft
Windchill 41 °F
Dew Point 41 °F
Humidity 87%
Rainfall 0.00 in
Snow Depth Not available.
UV 0 out of 12
Pollen .10 out of 12
Air Quality Not available.
Flu Activity Not available.
METAR KRCR 270855Z AUTO 17006KT 7SM -RA SCT017 BKN021 OVC038 08/06 A3008 RMK AO2

More Conditions Fewer Conditions

Pressure 30.08 in
Visibility 7.0 miles
Clouds Scattered Clouds 1700 ft
Mostly Cloudy 2100 ft
Overcast 3800 ft
Windchill 41 °F
Dew Point 41 °F
Humidity 87%
Rainfall 0.00 in
Snow Depth Not available.
UV 0 out of 12
Pollen .10 out of 12
Air Quality Not available.
Flu Activity Not available.
METAR KRCR 270855Z AUTO 17006KT 7SM -RA SCT017 BKN021 OVC038 08/06 A3008 RMK AO2

More Conditions Fewer Conditions

10-Day Weather Forecast

Almanac

Astronomy

Dec. 27, 2014 Rise Set
Actual Time
Civil Twilight
Nautical Twilight
Astronomical Twilight
Moon
Length of Visible Light
Length of Day
Tomorrow will be .
, % of the Moon is Illuminated

Today's Extremes

State Highs State Lows

Community

WunderPhotos

Upload Photos

1,780,863 photos uploaded!

WunderBlogs® & News

Nearby

Air Quality

  Air Quality AQ Index Pollutant
Not available.

Snow Depth

Station Depth Elevation

Earthquake Activity

City Distance Mag. Time & Date
Minimum magnitude displayed is 2.5.

Coastal Water Temperatures

Place Temperature

Nearby Weather Stations